createdAt,value
2023-03-07T00:00:47.689Z,0.30
2023-03-07T00:03:16.465Z,0.29
2023-03-07T00:05:45.819Z,0.29
2023-03-07T00:08:14.462Z,0.27
2023-03-07T00:10:43.878Z,0.28
2023-03-07T00:13:14.536Z,0.29
2023-03-07T00:15:42.621Z,0.31
2023-03-07T00:18:13.551Z,0.31
2023-03-07T00:20:42.225Z,0.31
2023-03-07T00:23:10.723Z,0.31
2023-03-07T00:25:40.939Z,0.31
2023-03-07T00:28:09.462Z,0.30
2023-03-07T00:30:38.352Z,0.29
2023-03-07T00:33:10.527Z,0.28
2023-03-07T00:35:38.800Z,0.27
2023-03-07T00:38:06.939Z,0.28
2023-03-07T00:40:38.377Z,0.29
2023-03-07T00:43:08.284Z,0.31
2023-03-07T00:45:36.397Z,0.31
2023-03-07T00:48:04.693Z,0.31
2023-03-07T00:50:34.210Z,0.29
2023-03-07T00:53:02.622Z,0.28
2023-03-07T00:55:31.766Z,0.26
2023-03-07T00:58:00.205Z,0.25
2023-03-07T01:00:28.517Z,0.23
2023-03-07T01:02:58.332Z,0.23
2023-03-07T01:05:28.638Z,0.21
2023-03-07T01:07:57.834Z,0.21
2023-03-07T01:10:28.322Z,0.18
2023-03-07T01:12:56.917Z,0.13
2023-03-07T01:15:25.939Z,0.10
2023-03-07T01:17:54.469Z,0.07
2023-03-07T01:20:22.848Z,0.06
2023-03-07T01:22:51.060Z,0.06
2023-03-07T01:25:19.316Z,0.06
2023-03-07T01:27:47.655Z,0.08
2023-03-07T01:30:16.351Z,0.10
2023-03-07T01:32:44.647Z,0.13
2023-03-07T01:35:13.639Z,0.14
2023-03-07T01:37:42.100Z,0.14
2023-03-07T01:40:12.152Z,0.16
2023-03-07T01:42:40.264Z,0.18
2023-03-07T01:45:34.387Z,0.18
2023-03-07T01:48:05.177Z,0.20
2023-03-07T01:50:34.658Z,0.24
2023-03-07T01:53:02.805Z,0.27
2023-03-07T01:55:35.060Z,0.31
2023-03-07T01:58:14.156Z,0.33
2023-03-07T02:00:42.514Z,0.36
2023-03-07T02:03:21.558Z,0.39
2023-03-07T02:06:04.915Z,0.41
2023-03-07T02:08:36.816Z,0.45
2023-03-07T02:11:05.840Z,0.47
2023-03-07T02:13:34.023Z,0.49
2023-03-07T02:16:04.466Z,0.51
2023-03-07T02:18:35.276Z,0.52
2023-03-07T02:21:25.807Z,0.53
2023-03-07T02:24:21.659Z,0.54
2023-03-07T02:26:51.347Z,0.55
2023-03-07T02:29:24.068Z,0.56
2023-03-07T02:31:52.680Z,0.57
2023-03-07T02:34:28.943Z,0.58
2023-03-07T02:37:19.461Z,0.57
2023-03-07T02:39:48.539Z,0.57
2023-03-07T02:42:26.421Z,0.57
2023-03-07T02:45:01.786Z,0.56
2023-03-07T02:47:32.421Z,0.56
2023-03-07T02:50:00.994Z,0.57
2023-03-07T02:52:30.286Z,0.58
2023-03-07T02:54:58.890Z,0.59
2023-03-07T02:57:33.598Z,0.59
2023-03-07T03:00:07.147Z,0.59
2023-03-07T03:02:35.901Z,0.57
2023-03-07T03:05:10.261Z,0.55
2023-03-07T03:07:38.855Z,0.53
2023-03-07T03:10:07.815Z,0.53
2023-03-07T03:12:37.698Z,0.53
2023-03-07T03:15:08.072Z,0.52
2023-03-07T03:17:36.797Z,0.53
2023-03-07T03:20:12.909Z,0.54
2023-03-07T03:22:41.740Z,0.55
2023-03-07T03:25:11.573Z,0.57
2023-03-07T03:27:41.670Z,0.58
2023-03-07T03:30:12.790Z,0.59
2023-03-07T03:32:48.712Z,0.61
2023-03-07T03:35:17.630Z,0.62
2023-03-07T03:37:46.368Z,0.65
2023-03-07T03:40:17.786Z,0.70
2023-03-07T03:42:47.064Z,0.73
2023-03-07T03:45:16.673Z,0.77
2023-03-07T03:47:44.852Z,0.80
2023-03-07T03:50:16.313Z,0.82
2023-03-07T03:52:45.408Z,0.83
2023-03-07T03:55:14.125Z,0.84
2023-03-07T03:57:43.475Z,0.86
2023-03-07T04:00:16.071Z,0.88
2023-03-07T04:02:44.402Z,0.91
2023-03-07T04:05:13.707Z,0.93
2023-03-07T04:07:41.906Z,0.97
2023-03-07T04:10:11.007Z,1.01
2023-03-07T04:12:42.920Z,1.07
2023-03-07T04:15:12.933Z,1.13
2023-03-07T04:17:41.433Z,1.18
2023-03-07T04:20:17.406Z,1.22
2023-03-07T04:22:47.219Z,1.27
2023-03-07T04:25:15.820Z,1.31
2023-03-07T04:27:44.390Z,1.34
2023-03-07T04:30:12.933Z,1.37
2023-03-07T04:32:42.709Z,1.41
2023-03-07T04:35:11.035Z,1.46
2023-03-07T04:37:40.708Z,1.48
2023-03-07T04:40:10.192Z,1.52
2023-03-07T04:42:38.388Z,1.55
2023-03-07T04:45:07.430Z,1.59
2023-03-07T04:47:35.512Z,1.64
2023-03-07T04:50:03.859Z,1.67
2023-03-07T04:52:34.186Z,1.71
2023-03-07T04:55:02.833Z,1.76
2023-03-07T04:57:31.520Z,1.81
2023-03-07T05:00:00.216Z,1.86
2023-03-07T05:02:29.019Z,1.90
2023-03-07T05:04:57.533Z,1.92
2023-03-07T05:07:27.400Z,1.93
2023-03-07T05:09:56.660Z,1.96
2023-03-07T05:12:28.067Z,1.98
2023-03-07T05:14:56.824Z,2.01
2023-03-07T05:17:24.996Z,2.03
2023-03-07T05:19:56.293Z,2.08
2023-03-07T05:22:42.637Z,2.13
2023-03-07T05:25:11.626Z,2.18
2023-03-07T05:27:40.479Z,2.22
2023-03-07T05:30:09.440Z,2.24
2023-03-07T05:32:38.358Z,2.28
2023-03-07T05:35:08.905Z,2.32
2023-03-07T05:37:38.863Z,2.37
2023-03-07T05:40:11.140Z,2.43
2023-03-07T05:42:42.748Z,2.51
2023-03-07T05:45:11.535Z,2.58
2023-03-07T05:47:40.374Z,2.64
2023-03-07T05:50:12.312Z,2.69
2023-03-07T05:52:42.062Z,2.67
2023-03-07T05:55:11.475Z,2.65
2023-03-07T05:57:39.877Z,2.62
2023-03-07T06:00:08.989Z,2.59
2023-03-07T06:02:49.931Z,2.56
2023-03-07T06:05:18.843Z,2.41
2023-03-07T06:07:50.319Z,2.14
2023-03-07T06:10:22.371Z,1.92
2023-03-07T06:12:51.776Z,1.73
2023-03-07T06:15:32.144Z,1.48
2023-03-07T06:18:06.835Z,1.31
2023-03-07T06:20:43.106Z,1.27
2023-03-07T06:23:14.284Z,1.24
2023-03-07T06:25:43.714Z,1.19
2023-03-07T06:28:13.999Z,1.09
2023-03-07T06:30:43.646Z,1.04
2023-03-07T06:33:23.230Z,1.07
2023-03-07T06:35:57.140Z,1.08
2023-03-07T06:38:27.903Z,1.07
2023-03-07T06:40:59.204Z,1.15
2023-03-07T06:43:30.216Z,1.24
2023-03-07T06:46:05.750Z,1.31
2023-03-07T06:48:42.001Z,1.33
2023-03-07T06:51:20.046Z,1.40
2023-03-07T06:53:50.318Z,1.47
2023-03-07T06:56:21.594Z,1.44
2023-03-07T06:58:51.046Z,1.49
2023-03-07T07:01:33.981Z,1.54
2023-03-07T07:04:07.965Z,1.66
2023-03-07T07:06:38.786Z,1.73
2023-03-07T07:09:07.421Z,1.70
2023-03-07T07:11:45.878Z,1.68
2023-03-07T07:14:17.063Z,1.69
2023-03-07T07:16:47.797Z,1.75
2023-03-07T07:19:19.523Z,1.77
2023-03-07T07:21:53.311Z,1.82
2023-03-07T07:24:24.821Z,1.88
2023-03-07T07:27:08.311Z,1.91
2023-03-07T07:29:39.315Z,2.01
2023-03-07T07:32:12.132Z,2.08
2023-03-07T07:34:42.047Z,2.10
2023-03-07T07:37:11.927Z,2.07
2023-03-07T07:39:46.254Z,2.07
2023-03-07T07:42:14.465Z,2.07
2023-03-07T07:44:53.359Z,2.10
2023-03-07T07:47:25.002Z,2.07
2023-03-07T07:49:54.993Z,2.08
2023-03-07T07:52:35.904Z,2.10
2023-03-07T07:55:05.885Z,2.13
2023-03-07T07:57:34.241Z,2.23
2023-03-07T08:00:07.912Z,2.31
2023-03-07T08:02:40.891Z,2.41
2023-03-07T08:05:12.958Z,2.50
2023-03-07T08:07:42.808Z,2.63
2023-03-07T08:10:15.993Z,2.63
2023-03-07T08:12:52.620Z,2.71
2023-03-07T08:15:24.923Z,2.83
2023-03-07T08:17:54.836Z,2.91
2023-03-07T08:20:29.672Z,3.02
2023-03-07T08:22:59.938Z,3.12
2023-03-07T08:25:28.034Z,3.18
2023-03-07T08:28:00.123Z,3.19
2023-03-07T08:30:32.082Z,3.26
2023-03-07T08:33:03.780Z,3.35
2023-03-07T08:35:36.060Z,3.32
2023-03-07T08:38:05.121Z,3.27
2023-03-07T08:40:41.069Z,3.30
2023-03-07T08:43:10.707Z,3.49
2023-03-07T08:45:41.633Z,3.68
2023-03-07T08:48:10.778Z,3.79
2023-03-07T08:50:39.696Z,3.86
2023-03-07T08:53:08.779Z,3.97
2023-03-07T08:55:37.297Z,4.06
2023-03-07T08:58:14.053Z,4.13
2023-03-07T09:00:45.127Z,4.14
2023-03-07T09:03:14.069Z,4.17
2023-03-07T09:05:42.338Z,4.17
2023-03-07T09:08:12.213Z,4.10
2023-03-07T09:13:26.463Z,4.03
2023-03-07T09:15:54.682Z,4.01
2023-03-07T09:18:26.993Z,4.00
2023-03-07T09:21:03.479Z,4.08
2023-03-07T09:23:35.576Z,4.15
2023-03-07T09:26:08.827Z,4.20
2023-03-07T09:28:39.845Z,4.22
2023-03-07T09:31:11.612Z,4.26
2023-03-07T09:33:42.679Z,4.27
2023-03-07T09:36:15.749Z,4.28
2023-03-07T09:38:44.583Z,4.27
2023-03-07T09:41:25.085Z,4.32
2023-03-07T09:44:31.404Z,4.42
2023-03-07T09:47:24.064Z,4.49
2023-03-07T09:49:53.022Z,4.46
2023-03-07T09:52:29.196Z,4.40
2023-03-07T09:55:16.174Z,4.25
2023-03-07T09:58:08.119Z,4.14
2023-03-07T10:00:41.548Z,4.09
2023-03-07T10:03:49.650Z,4.09
2023-03-07T10:06:26.893Z,4.17
2023-03-07T10:08:55.403Z,4.25
2023-03-07T10:11:48.351Z,4.36
2023-03-07T10:14:17.601Z,4.45
2023-03-07T10:16:51.621Z,4.44
2023-03-07T10:19:44.674Z,4.39
2023-03-07T10:22:30.707Z,4.37
2023-03-07T10:24:59.252Z,4.40
2023-03-07T10:27:29.074Z,4.49
2023-03-07T10:29:59.773Z,4.63
2023-03-07T10:32:38.148Z,4.75
2023-03-07T10:35:17.680Z,4.84
2023-03-07T10:37:52.066Z,4.93
2023-03-07T10:40:39.990Z,4.93
2023-03-07T10:43:08.206Z,4.81
2023-03-07T10:45:41.917Z,4.69
2023-03-07T10:48:16.593Z,4.62
2023-03-07T10:51:01.021Z,4.60
2023-03-07T10:53:32.451Z,4.57
2023-03-07T10:56:14.668Z,4.56
2023-03-07T10:59:09.651Z,4.60
2023-03-07T11:01:39.299Z,4.78
2023-03-07T11:04:08.397Z,4.97
2023-03-07T11:06:40.968Z,5.12
2023-03-07T11:09:11.069Z,5.26
2023-03-07T11:11:41.404Z,5.40
2023-03-07T11:14:14.585Z,5.47
2023-03-07T11:16:53.873Z,5.57
2023-03-07T11:19:35.747Z,5.60
2023-03-07T11:22:33.739Z,5.54
2023-03-07T11:25:15.119Z,5.46
2023-03-07T11:27:46.680Z,5.47
2023-03-07T11:30:30.068Z,5.54
2023-03-07T11:33:19.964Z,5.62
2023-03-07T11:36:17.209Z,5.69
2023-03-07T11:39:04.323Z,5.77
2023-03-07T11:41:41.569Z,5.84
2023-03-07T11:44:24.495Z,5.87
2023-03-07T11:47:18.622Z,5.86
2023-03-07T11:50:12.991Z,5.87
2023-03-07T11:53:09.599Z,5.91
2023-03-07T11:55:46.768Z,5.96
2023-03-07T11:58:36.909Z,5.96
2023-03-07T12:01:25.699Z,5.91
2023-03-07T12:04:31.717Z,5.89
2023-03-07T12:07:10.833Z,5.82
2023-03-07T12:09:49.696Z,5.74
2023-03-07T12:12:28.453Z,5.71
2023-03-07T12:15:21.879Z,5.72
2023-03-07T12:17:53.782Z,5.74
2023-03-07T12:20:32.075Z,5.77
2023-03-07T12:23:14.289Z,5.84
2023-03-07T12:26:18.562Z,5.94
2023-03-07T12:29:19.702Z,6.07
2023-03-07T12:31:55.084Z,6.16
2023-03-07T12:34:29.697Z,6.17
2023-03-07T12:37:11.715Z,6.12
2023-03-07T12:40:48.482Z,6.04
2023-03-07T12:43:30.828Z,5.99
2023-03-07T12:46:17.588Z,6.02
2023-03-07T12:48:58.617Z,6.09
2023-03-07T12:51:59.633Z,6.17
2023-03-07T12:54:34.368Z,6.22
2023-03-07T12:57:20.196Z,6.26
2023-03-07T12:59:51.514Z,6.29
2023-03-07T13:02:30.641Z,6.34
2023-03-07T13:05:02.062Z,6.36
2023-03-07T13:07:35.908Z,6.36
2023-03-07T13:10:05.762Z,6.36
2023-03-07T13:12:36.127Z,6.36
2023-03-07T13:15:07.107Z,6.34
2023-03-07T13:17:38.276Z,6.30
2023-03-07T13:20:15.745Z,6.30
2023-03-07T13:22:45.864Z,6.32
2023-03-07T13:25:20.130Z,6.37
2023-03-07T13:27:48.572Z,6.41
2023-03-07T13:30:19.592Z,6.44
2023-03-07T13:32:50.984Z,6.45
2023-03-07T13:35:48.229Z,6.46
2023-03-07T13:38:58.409Z,6.47
2023-03-07T13:41:46.694Z,6.48
2023-03-07T13:44:38.819Z,6.48
2023-03-07T13:47:43.205Z,6.48
2023-03-07T13:50:36.615Z,6.47
2023-03-07T13:53:28.333Z,6.46
2023-03-07T13:56:20.214Z,6.45
2023-03-07T13:59:10.298Z,6.42
2023-03-07T14:01:56.283Z,6.39
2023-03-07T14:04:40.022Z,6.36
2023-03-07T14:07:28.999Z,6.35
2023-03-07T14:10:22.756Z,6.36
2023-03-07T14:13:11.263Z,6.38
2023-03-07T14:15:58.564Z,6.38
2023-03-07T14:18:45.471Z,6.36
2023-03-07T14:21:20.933Z,6.34
2023-03-07T14:24:25.654Z,6.34
2023-03-07T14:26:56.974Z,6.32
2023-03-07T14:29:26.593Z,6.32
2023-03-07T14:31:57.146Z,6.30
2023-03-07T14:34:33.017Z,6.27
2023-03-07T14:37:04.779Z,6.24
2023-03-07T14:39:44.489Z,6.23
2023-03-07T14:42:21.362Z,6.21
2023-03-07T14:45:15.806Z,6.19
2023-03-07T14:48:16.320Z,6.18
2023-03-07T14:50:53.670Z,6.19
2023-03-07T14:53:26.403Z,6.18
2023-03-07T14:55:55.493Z,6.15
2023-03-07T14:58:33.659Z,6.10
2023-03-07T15:01:06.722Z,6.06
2023-03-07T15:03:35.531Z,6.04
2023-03-07T15:06:13.591Z,6.02
2023-03-07T15:08:41.816Z,6.00
2023-03-07T15:11:16.529Z,5.96
2023-03-07T15:13:51.235Z,5.93
2023-03-07T15:16:25.991Z,5.89
2023-03-07T15:19:19.406Z,5.85
2023-03-07T15:21:53.407Z,5.79
2023-03-07T15:24:35.679Z,5.75
2023-03-07T15:27:10.623Z,5.71
2023-03-07T15:29:47.416Z,5.69
2023-03-07T15:32:33.305Z,5.68
2023-03-07T15:35:09.137Z,5.65
2023-03-07T15:38:23.602Z,5.62
2023-03-07T15:40:51.818Z,5.58
2023-03-07T15:43:23.694Z,5.54
2023-03-07T15:46:00.175Z,5.49
2023-03-07T15:48:50.862Z,5.45
2023-03-07T15:51:20.691Z,5.40
2023-03-07T15:54:16.666Z,5.37
2023-03-07T15:56:45.893Z,5.33
2023-03-07T15:59:30.496Z,5.31
2023-03-07T16:01:58.716Z,5.28
2023-03-07T16:04:37.121Z,5.26
2023-03-07T16:07:16.335Z,5.24
2023-03-07T16:09:45.075Z,5.21
2023-03-07T16:12:14.792Z,5.16
2023-03-07T16:14:55.912Z,5.11
2023-03-07T16:17:36.503Z,5.03
2023-03-07T16:20:05.260Z,4.96
2023-03-07T16:22:34.087Z,4.87
2023-03-07T16:25:02.560Z,4.81
2023-03-07T16:27:31.386Z,4.74
2023-03-07T16:30:00.952Z,4.66
2023-03-07T16:32:29.823Z,4.59
2023-03-07T16:34:59.718Z,4.52
2023-03-07T16:37:28.743Z,4.46
2023-03-07T16:39:56.924Z,4.42
2023-03-07T16:42:25.690Z,4.38
2023-03-07T16:44:54.730Z,4.36
2023-03-07T16:47:23.064Z,4.33
2023-03-07T16:49:51.308Z,4.33
2023-03-07T16:52:19.489Z,4.31
2023-03-07T16:54:48.430Z,4.27
2023-03-07T16:57:18.007Z,4.24
2023-03-07T16:59:47.245Z,4.21
2023-03-07T17:02:25.669Z,4.18
2023-03-07T17:04:54.094Z,4.17
2023-03-07T17:07:27.851Z,4.16
2023-03-07T17:09:59.527Z,4.15
2023-03-07T17:12:29.835Z,4.14
2023-03-07T17:15:01.266Z,4.13
2023-03-07T17:17:33.528Z,4.11
2023-03-07T17:20:06.059Z,4.10
2023-03-07T17:22:38.270Z,4.09
2023-03-07T17:25:11.417Z,4.07
2023-03-07T17:27:59.365Z,4.05
2023-03-07T17:30:34.343Z,4.04
2023-03-07T17:33:04.726Z,4.05
2023-03-07T17:35:36.212Z,4.07
2023-03-07T17:38:04.441Z,4.11
2023-03-07T17:40:41.576Z,4.15
2023-03-07T17:43:13.204Z,4.18
2023-03-07T17:45:51.307Z,4.20
2023-03-07T17:48:21.053Z,4.21
2023-03-07T17:50:49.437Z,4.22
2023-03-07T17:53:22.034Z,4.21
2023-03-07T17:55:50.220Z,4.21
2023-03-07T17:58:19.321Z,4.23
2023-03-07T18:00:47.622Z,4.27
2023-03-07T18:03:18.475Z,4.32
2023-03-07T18:05:49.505Z,4.36
2023-03-07T18:08:20.665Z,4.40
2023-03-07T18:10:48.904Z,4.44
2023-03-07T18:13:20.725Z,4.48
2023-03-07T18:15:49.111Z,4.50
2023-03-07T18:18:17.154Z,4.51
2023-03-07T18:20:46.232Z,4.52
2023-03-07T18:23:14.230Z,4.53
2023-03-07T18:25:42.570Z,4.54
2023-03-07T18:28:11.830Z,4.54
2023-03-07T18:30:42.690Z,4.53
2023-03-07T18:33:12.593Z,4.53
2023-03-07T18:35:41.998Z,4.52
2023-03-07T18:38:10.336Z,4.49
2023-03-07T18:40:40.489Z,4.45
2023-03-07T18:43:08.744Z,4.41
2023-03-07T18:45:37.167Z,4.40
2023-03-07T18:48:05.911Z,4.41
2023-03-07T18:50:34.343Z,4.43
2023-03-07T18:53:04.337Z,4.47
2023-03-07T18:55:34.773Z,4.50
2023-03-07T18:58:08.233Z,4.54
2023-03-07T19:00:37.366Z,4.55
2023-03-07T19:03:08.780Z,4.55
2023-03-07T19:05:47.364Z,4.57
2023-03-07T19:08:17.368Z,4.58
2023-03-07T19:10:45.743Z,4.57
2023-03-07T19:13:14.409Z,4.56
2023-03-07T19:15:45.017Z,4.57
2023-03-07T19:18:13.441Z,4.56
2023-03-07T19:20:41.490Z,4.56
2023-03-07T19:23:09.757Z,4.55
2023-03-07T19:25:38.530Z,4.53
2023-03-07T19:28:06.602Z,4.49
2023-03-07T19:30:37.170Z,4.45
2023-03-07T19:33:08.035Z,4.42
2023-03-07T19:35:38.247Z,4.38
2023-03-07T19:38:07.194Z,4.38
2023-03-07T19:40:35.333Z,4.38
2023-03-07T19:43:04.265Z,4.36
2023-03-07T19:45:32.617Z,4.33
2023-03-07T19:48:00.684Z,4.28
2023-03-07T19:50:28.866Z,4.23
2023-03-07T19:53:00.442Z,4.17
2023-03-07T19:55:30.925Z,4.12
2023-03-07T19:57:59.143Z,4.08
2023-03-07T20:00:29.707Z,4.03
2023-03-07T20:02:57.939Z,3.98
2023-03-07T20:05:29.379Z,3.94
2023-03-07T20:08:04.747Z,3.90
2023-03-07T20:10:37.730Z,3.86
2023-03-07T20:13:14.878Z,3.82
2023-03-07T20:15:51.804Z,3.79
2023-03-07T20:18:22.670Z,3.76
2023-03-07T20:20:53.917Z,3.73
2023-03-07T20:23:22.808Z,3.70
2023-03-07T20:25:51.385Z,3.67
2023-03-07T20:28:19.489Z,3.63
2023-03-07T20:30:51.030Z,3.60
2023-03-07T20:33:22.988Z,3.56
2023-03-07T20:36:00.975Z,3.53
2023-03-07T20:38:33.776Z,3.51
2023-03-07T20:41:06.747Z,3.48
2023-03-07T20:43:36.351Z,3.46
2023-03-07T20:46:05.812Z,3.43
2023-03-07T20:48:36.058Z,3.41
2023-03-07T20:51:16.200Z,3.40
2023-03-07T20:54:00.533Z,3.39
2023-03-07T20:56:30.394Z,3.37
2023-03-07T20:59:03.491Z,3.37
2023-03-07T21:01:32.670Z,3.36
2023-03-07T21:04:06.260Z,3.35
2023-03-07T21:06:40.836Z,3.34
2023-03-07T21:09:10.331Z,3.33
2023-03-07T21:11:45.248Z,3.31
2023-03-07T21:14:14.622Z,3.28
2023-03-07T21:16:44.895Z,3.26
2023-03-07T21:19:13.506Z,3.24
2023-03-07T21:21:41.598Z,3.21
2023-03-07T21:24:12.077Z,3.19
2023-03-07T21:26:43.319Z,3.16
2023-03-07T21:29:13.462Z,3.13
2023-03-07T21:31:41.618Z,3.12
2023-03-07T21:34:13.423Z,3.11
2023-03-07T21:36:41.509Z,3.08
2023-03-07T21:39:11.673Z,3.06
2023-03-07T21:41:41.215Z,3.02
2023-03-07T21:44:09.877Z,3.00
2023-03-07T21:46:38.617Z,2.95
2023-03-07T21:49:07.659Z,2.92
2023-03-07T21:51:37.517Z,2.89
2023-03-07T21:54:05.808Z,2.85
2023-03-07T21:56:35.182Z,2.82
2023-03-07T21:59:03.518Z,2.77
2023-03-07T22:01:37.544Z,2.74
2023-03-07T22:04:05.585Z,2.71
2023-03-07T22:06:33.807Z,2.67
2023-03-07T22:09:01.858Z,2.63
2023-03-07T22:11:29.969Z,2.60
2023-03-07T22:13:59.160Z,2.56
2023-03-07T22:16:29.650Z,2.53
2023-03-07T22:18:58.097Z,2.50
2023-03-07T22:21:26.848Z,2.48
2023-03-07T22:23:59.929Z,2.46
2023-03-07T22:26:29.070Z,2.41
2023-03-07T22:28:57.366Z,2.38
2023-03-07T22:31:25.787Z,2.35
2023-03-07T22:33:54.851Z,2.34
2023-03-07T22:36:25.074Z,2.33
2023-03-07T22:38:55.345Z,2.32
2023-03-07T22:41:23.998Z,2.29
2023-03-07T22:43:52.727Z,2.29
2023-03-07T22:46:21.152Z,2.28
2023-03-07T22:48:52.495Z,2.28
2023-03-07T22:51:22.993Z,2.28
2023-03-07T22:53:53.813Z,2.28
2023-03-07T22:56:24.402Z,2.28
2023-03-07T22:58:58.776Z,2.28
2023-03-07T23:01:28.577Z,2.27
2023-03-07T23:03:57.990Z,2.27
2023-03-07T23:06:31.174Z,2.27
2023-03-07T23:08:59.916Z,2.26
2023-03-07T23:11:33.092Z,2.25
2023-03-07T23:14:01.889Z,2.25
2023-03-07T23:16:31.796Z,2.23
2023-03-07T23:19:03.428Z,2.23
2023-03-07T23:21:32.317Z,2.22
2023-03-07T23:24:03.921Z,2.21
2023-03-07T23:26:36.922Z,2.21
2023-03-07T23:29:05.906Z,2.21
2023-03-07T23:31:36.647Z,2.21
2023-03-07T23:34:06.773Z,2.22
2023-03-07T23:36:35.414Z,2.23
2023-03-07T23:39:03.962Z,2.23
2023-03-07T23:41:32.031Z,2.22
2023-03-07T23:44:00.586Z,2.21
2023-03-07T23:46:29.269Z,2.22
2023-03-07T23:48:57.391Z,2.22
2023-03-07T23:51:25.639Z,2.22
2023-03-07T23:53:55.391Z,2.22
2023-03-07T23:56:23.979Z,2.19
2023-03-07T23:58:52.384Z,2.17
